createdAt,value
2023-04-05T00:02:18.824Z,5.13
2023-04-05T00:04:52.464Z,5.60
2023-04-05T00:10:01.723Z,4.80
2023-04-05T00:12:28.585Z,4.83
2023-04-05T00:14:55.457Z,5.00
2023-04-05T00:17:22.586Z,5.87
2023-04-05T00:19:56.258Z,4.67
2023-04-05T00:22:26.134Z,5.20
2023-04-05T00:24:52.978Z,4.77
2023-04-05T00:27:20.333Z,4.77
2023-04-05T00:29:47.139Z,5.70
2023-04-05T00:32:14.047Z,4.83
2023-04-05T00:34:40.973Z,4.80
2023-04-05T00:37:07.865Z,5.20
2023-04-05T00:39:34.682Z,5.70
2023-04-05T00:42:04.869Z,4.90
2023-04-05T00:44:35.222Z,5.20
2023-04-05T00:47:03.591Z,5.20
2023-04-05T00:49:32.280Z,5.60
2023-04-05T00:51:59.447Z,5.80
2023-04-05T00:54:28.766Z,4.80
2023-04-05T00:57:00.054Z,4.93
2023-04-05T00:59:29.107Z,5.87
2023-04-05T01:02:04.990Z,5.90
2023-04-05T01:04:34.336Z,5.10
2023-04-05T01:07:23.816Z,5.27
2023-04-05T01:09:57.604Z,5.80
2023-04-05T01:12:28.425Z,5.73
2023-04-05T01:14:55.703Z,6.10
2023-04-05T01:17:24.591Z,5.87
2023-04-05T01:19:54.492Z,5.80
2023-04-05T01:22:58.785Z,5.00
2023-04-05T01:26:03.785Z,5.47
2023-04-05T01:28:57.935Z,4.80
2023-04-05T01:31:43.167Z,5.33
2023-04-05T01:34:19.014Z,5.60
2023-04-05T01:36:50.943Z,5.20
2023-04-05T01:39:20.810Z,5.50
2023-04-05T01:41:47.843Z,6.10
2023-04-05T01:44:17.961Z,6.47
2023-04-05T01:46:45.036Z,5.83
2023-04-05T01:49:11.872Z,7.20
2023-04-05T01:51:42.223Z,7.80
2023-04-05T01:54:09.646Z,7.63
2023-04-05T01:56:36.498Z,7.50
2023-04-05T01:59:03.610Z,5.90
2023-04-05T02:01:30.758Z,6.07
2023-04-05T02:03:57.980Z,6.03
2023-04-05T02:06:24.963Z,5.50
2023-04-05T02:08:51.810Z,5.60
2023-04-05T02:11:18.692Z,5.60
2023-04-05T02:13:45.540Z,4.40
2023-04-05T02:16:12.464Z,5.27
2023-04-05T02:18:39.361Z,4.70
2023-04-05T02:21:08.173Z,5.40
2023-04-05T02:23:35.628Z,5.07
2023-04-05T02:26:02.847Z,4.67
2023-04-05T02:28:29.789Z,4.60
2023-04-05T02:30:57.015Z,4.80
2023-04-05T02:33:23.897Z,4.80
2023-04-05T02:35:52.950Z,4.57
2023-04-05T02:38:19.985Z,5.13
2023-04-05T02:40:49.410Z,5.00
2023-04-05T02:43:16.693Z,5.40
2023-04-05T02:45:44.975Z,4.70
2023-04-05T02:48:13.727Z,5.47
2023-04-05T02:50:40.964Z,4.67
2023-04-05T02:53:07.994Z,4.83
2023-04-05T02:55:34.805Z,5.70
2023-04-05T02:58:01.749Z,6.10
2023-04-05T03:00:29.272Z,6.33
2023-04-05T03:02:56.834Z,5.70
2023-04-05T03:05:23.832Z,6.53
2023-04-05T03:07:52.278Z,6.40
2023-04-05T03:10:22.657Z,5.00
2023-04-05T03:12:51.658Z,5.93
2023-04-05T03:15:18.493Z,5.60
2023-04-05T03:17:46.073Z,5.20
2023-04-05T03:20:13.368Z,6.37
2023-04-05T03:22:41.192Z,5.83
2023-04-05T03:25:08.270Z,6.80
2023-04-05T03:27:35.205Z,6.20
2023-04-05T03:30:02.186Z,5.43
2023-04-05T03:32:29.075Z,5.90
2023-04-05T03:34:56.046Z,6.00
2023-04-05T03:37:22.900Z,5.87
2023-04-05T03:39:49.790Z,6.10
2023-04-05T03:42:17.863Z,6.07
2023-04-05T03:44:44.845Z,6.93
2023-04-05T03:47:13.297Z,5.50
2023-04-05T03:49:40.168Z,6.63
2023-04-05T03:52:07.115Z,6.83
2023-04-05T03:54:33.966Z,6.20
2023-04-05T03:57:01.300Z,7.27
2023-04-05T03:59:28.554Z,6.53
2023-04-05T04:01:56.052Z,6.30
2023-04-05T04:04:22.988Z,7.20
2023-04-05T04:06:49.799Z,6.60
2023-04-05T04:09:16.645Z,7.70
2023-04-05T04:11:43.446Z,7.20
2023-04-05T04:14:10.275Z,6.60
2023-04-05T04:16:37.160Z,7.13
2023-04-05T04:19:04.031Z,6.80
2023-04-05T04:21:32.792Z,8.07
2023-04-05T04:24:01.042Z,7.30
2023-04-05T04:26:29.313Z,7.00
2023-04-05T04:28:56.917Z,6.97
2023-04-05T04:31:23.818Z,6.60
2023-04-05T04:33:50.742Z,6.63
2023-04-05T04:36:19.169Z,7.30
2023-04-05T04:38:46.116Z,7.50
2023-04-05T04:41:14.209Z,8.00
2023-04-05T04:43:43.974Z,6.93
2023-04-05T04:46:15.469Z,7.73
2023-04-05T04:48:42.658Z,7.00
2023-04-05T04:51:09.653Z,6.80
2023-04-05T04:53:36.750Z,7.40
2023-04-05T04:56:09.844Z,7.73
2023-04-05T04:58:36.757Z,7.13
2023-04-05T05:01:09.994Z,7.80
2023-04-05T05:03:38.790Z,7.30
2023-04-05T05:06:06.142Z,7.67
2023-04-05T05:08:33.019Z,7.33
2023-04-05T05:11:01.358Z,7.00
2023-04-05T05:13:28.191Z,7.60
2023-04-05T05:15:55.112Z,7.23
2023-04-05T05:18:21.960Z,7.03
2023-04-05T05:20:51.374Z,7.20
2023-04-05T05:23:18.285Z,6.83
2023-04-05T05:25:45.192Z,6.80
2023-04-05T05:28:12.021Z,6.60
2023-04-05T05:30:39.164Z,8.37
2023-04-05T05:33:06.250Z,8.57
2023-04-05T05:35:33.223Z,8.00
2023-04-05T05:38:00.164Z,7.03
2023-04-05T05:40:27.236Z,6.97
2023-04-05T05:42:54.131Z,7.20
2023-04-05T05:45:21.206Z,8.00
2023-04-05T05:47:48.188Z,8.03
2023-04-05T05:50:17.258Z,6.60
2023-04-05T05:52:44.079Z,8.10
2023-04-05T05:55:10.966Z,6.90
2023-04-05T05:57:39.038Z,6.00
2023-04-05T06:00:10.836Z,6.10
2023-04-05T06:02:37.907Z,6.17
2023-04-05T06:05:05.214Z,6.40
2023-04-05T06:10:05.050Z,6.60
2023-04-05T06:12:31.989Z,5.97
2023-04-05T06:14:58.865Z,7.33
2023-04-05T06:17:25.756Z,8.23
2023-04-05T06:19:52.631Z,6.93
2023-04-05T06:22:19.813Z,8.70
2023-04-05T06:24:46.661Z,6.50
2023-04-05T06:27:14.821Z,6.87
2023-04-05T06:29:41.730Z,6.47
2023-04-05T06:32:08.671Z,7.03
2023-04-05T06:34:35.702Z,6.87
2023-04-05T06:37:03.010Z,6.03
2023-04-05T06:39:29.938Z,7.10
2023-04-05T06:41:56.853Z,7.40
2023-04-05T06:44:23.749Z,7.40
2023-04-05T06:46:50.612Z,7.00
2023-04-05T06:49:17.480Z,7.83
2023-04-05T06:51:44.336Z,8.30
2023-04-05T06:54:12.087Z,9.03
2023-04-05T06:56:39.256Z,11.40
2023-04-05T06:59:06.432Z,8.67
2023-04-05T07:01:33.812Z,8.57
2023-04-05T07:04:01.093Z,8.90
2023-04-05T07:06:30.029Z,8.03
2023-04-05T07:08:56.881Z,13.20
2023-04-05T07:11:23.718Z,8.70
2023-04-05T07:13:50.638Z,8.60
2023-04-05T07:16:19.472Z,8.50
2023-04-05T07:18:46.356Z,8.93
2023-04-05T07:21:13.258Z,9.20
2023-04-05T07:23:40.719Z,9.30
2023-04-05T07:26:08.531Z,10.70
2023-04-05T07:28:36.629Z,10.23
2023-04-05T07:31:04.837Z,9.97
2023-04-05T07:33:31.892Z,10.30
2023-04-05T07:35:59.213Z,9.90
2023-04-05T07:38:29.261Z,9.53
2023-04-05T07:40:56.568Z,8.87
2023-04-05T07:43:25.672Z,10.10
2023-04-05T07:45:56.553Z,9.50
2023-04-05T07:48:23.356Z,9.30
2023-04-05T07:50:53.046Z,8.83
2023-04-05T07:53:20.127Z,8.60
2023-04-05T07:55:47.420Z,8.20
2023-04-05T07:58:14.458Z,7.10
2023-04-05T08:00:41.528Z,7.83
2023-04-05T08:03:08.801Z,7.80
2023-04-05T08:05:35.752Z,8.20
2023-04-05T08:08:02.845Z,7.70
2023-04-05T08:10:29.697Z,8.10
2023-04-05T08:12:56.564Z,6.60
2023-04-05T08:15:23.462Z,7.80
2023-04-05T08:17:50.324Z,8.10
2023-04-05T08:20:17.229Z,7.37
2023-04-05T08:22:44.104Z,7.33
2023-04-05T08:25:11.008Z,9.27
2023-04-05T08:27:37.931Z,7.77
2023-04-05T08:30:06.202Z,7.67
2023-04-05T08:32:34.708Z,7.77
2023-04-05T08:35:01.954Z,7.60
2023-04-05T08:37:28.837Z,6.50
2023-04-05T08:39:55.747Z,7.13
2023-04-05T08:42:30.568Z,6.77
2023-04-05T08:44:59.850Z,7.13
2023-04-05T08:47:28.087Z,7.30
2023-04-05T08:49:55.347Z,6.97
2023-04-05T08:52:22.388Z,7.87
2023-04-05T08:54:50.907Z,7.20
2023-04-05T08:57:19.181Z,7.00
2023-04-05T08:59:46.683Z,7.27
2023-04-05T09:02:19.221Z,7.13
2023-04-05T09:04:48.583Z,6.77
2023-04-05T09:07:15.672Z,8.17
2023-04-05T09:09:46.821Z,7.57
2023-04-05T09:12:14.635Z,7.53
2023-04-05T09:14:41.968Z,6.93
2023-04-05T09:17:09.847Z,7.03
2023-04-05T09:19:36.860Z,7.20
2023-04-05T09:22:08.304Z,7.50
2023-04-05T09:24:44.002Z,7.23
2023-04-05T09:27:12.957Z,6.30
2023-04-05T09:29:41.646Z,7.90
2023-04-05T09:32:10.801Z,8.63
2023-04-05T09:34:38.402Z,6.13
2023-04-05T09:37:20.070Z,7.00
2023-04-05T09:39:50.024Z,8.50
2023-04-05T09:42:18.522Z,6.30
2023-04-05T09:45:07.350Z,6.53
2023-04-05T09:47:35.047Z,8.10
2023-04-05T09:50:06.917Z,7.10
2023-04-05T09:52:33.749Z,5.53
2023-04-05T09:55:07.321Z,6.70
2023-04-05T09:57:36.729Z,6.70
2023-04-05T10:00:06.121Z,7.13
2023-04-05T10:02:38.064Z,6.70
2023-04-05T10:05:19.195Z,7.40
2023-04-05T10:07:46.149Z,7.23
2023-04-05T10:10:13.844Z,7.13
2023-04-05T10:12:42.010Z,7.40
2023-04-05T10:15:09.690Z,7.37
2023-04-05T10:18:13.167Z,8.03
2023-04-05T10:20:41.766Z,7.70
2023-04-05T10:23:22.206Z,7.97
2023-04-05T10:25:53.062Z,6.70
2023-04-05T10:28:41.613Z,6.80
2023-04-05T10:31:34.192Z,7.50
2023-04-05T10:34:08.324Z,7.93
2023-04-05T10:36:47.482Z,6.90
2023-04-05T10:39:17.810Z,7.80
2023-04-05T10:41:49.498Z,7.30
2023-04-05T10:44:25.760Z,7.87
2023-04-05T10:46:54.941Z,7.83
2023-04-05T10:49:34.206Z,7.40
2023-04-05T10:52:02.864Z,7.07
2023-04-05T10:54:33.935Z,7.33
2023-04-05T10:57:03.516Z,8.20
2023-04-05T10:59:31.431Z,7.90
2023-04-05T11:01:59.064Z,6.87
2023-04-05T11:04:26.101Z,7.20
2023-04-05T11:07:16.497Z,7.70
2023-04-05T11:10:02.260Z,7.07
2023-04-05T11:12:47.495Z,7.60
2023-04-05T11:15:27.958Z,7.60
2023-04-05T11:18:10.251Z,7.40
2023-04-05T11:20:52.482Z,7.33
2023-04-05T11:23:24.932Z,7.10
2023-04-05T11:26:03.168Z,7.67
2023-04-05T11:28:32.186Z,7.30
2023-04-05T11:31:19.381Z,7.03
2023-04-05T11:33:55.834Z,7.67
2023-04-05T11:36:50.587Z,7.60
2023-04-05T11:39:22.984Z,7.87
2023-04-05T11:42:03.276Z,6.60
2023-04-05T11:44:32.148Z,7.07
2023-04-05T11:46:59.188Z,6.87
2023-04-05T11:49:26.306Z,6.73
2023-04-05T11:51:53.921Z,7.13
2023-04-05T11:54:31.130Z,7.70
2023-04-05T11:56:58.073Z,7.50
2023-04-05T11:59:43.032Z,6.97
2023-04-05T12:02:09.922Z,6.83
2023-04-05T12:04:38.029Z,6.63
2023-04-05T12:07:12.448Z,7.50
2023-04-05T12:10:01.002Z,7.17
2023-04-05T12:12:28.009Z,7.07
2023-04-05T12:15:00.653Z,6.57
2023-04-05T12:17:43.294Z,7.00
2023-04-05T12:20:12.212Z,6.57
2023-04-05T12:22:40.818Z,6.93
2023-04-05T12:25:08.764Z,7.43
2023-04-05T12:27:36.038Z,7.23
2023-04-05T12:30:23.063Z,6.57
2023-04-05T12:32:54.709Z,6.97
2023-04-05T12:35:33.202Z,6.40
2023-04-05T12:38:05.923Z,7.70
2023-04-05T12:40:34.882Z,7.40
2023-04-05T12:43:06.732Z,6.23
2023-04-05T12:45:41.013Z,6.90
2023-04-05T12:48:11.233Z,6.80
2023-04-05T12:50:46.581Z,6.57
2023-04-05T12:53:18.585Z,6.83
2023-04-05T12:55:49.809Z,6.97
2023-04-05T12:58:17.862Z,6.33
2023-04-05T13:00:45.486Z,7.40
2023-04-05T13:03:18.375Z,5.97
2023-04-05T13:05:45.651Z,6.53
2023-04-05T13:08:12.593Z,6.80
2023-04-05T13:10:39.765Z,6.00
2023-04-05T13:13:06.956Z,6.63
2023-04-05T13:15:33.862Z,6.13
2023-04-05T13:18:01.131Z,6.13
2023-04-05T13:20:28.154Z,6.60
2023-04-05T13:22:55.093Z,6.97
2023-04-05T13:25:22.132Z,7.23
2023-04-05T13:27:49.426Z,6.27
2023-04-05T13:30:17.081Z,6.03
2023-04-05T13:32:44.143Z,6.30
2023-04-05T13:35:11.453Z,6.37
2023-04-05T13:37:38.804Z,6.50
2023-04-05T13:40:06.609Z,6.73
2023-04-05T13:42:33.479Z,6.27
2023-04-05T13:45:00.400Z,6.80
2023-04-05T13:47:27.265Z,7.00
2023-04-05T13:49:54.227Z,7.07
2023-04-05T13:52:21.052Z,6.33
2023-04-05T13:54:47.890Z,6.57
2023-04-05T13:57:29.091Z,6.27
2023-04-05T13:59:56.152Z,5.87
2023-04-05T14:02:26.136Z,6.17
2023-04-05T14:04:56.127Z,5.50
2023-04-05T14:09:57.653Z,5.80
2023-04-05T14:12:24.947Z,5.70
2023-04-05T14:14:51.970Z,5.93
2023-04-05T14:17:18.927Z,5.73
2023-04-05T14:19:45.826Z,5.80
2023-04-05T14:22:12.758Z,5.77
2023-04-05T14:24:39.684Z,6.57
2023-04-05T14:27:06.641Z,6.07
2023-04-05T14:29:33.583Z,6.57
2023-04-05T14:32:00.548Z,5.57
2023-04-05T14:34:27.531Z,5.43
2023-04-05T14:36:58.527Z,5.80
2023-04-05T14:39:25.581Z,5.53
2023-04-05T14:41:53.024Z,5.50
2023-04-05T14:44:20.124Z,6.33
2023-04-05T14:46:47.798Z,6.20
2023-04-05T14:49:15.868Z,5.60
2023-04-05T14:51:42.765Z,5.37
2023-04-05T14:54:09.704Z,5.80
2023-04-05T14:56:39.622Z,5.33
2023-04-05T14:59:06.695Z,5.13
2023-04-05T15:01:33.784Z,5.73
2023-04-05T15:04:00.980Z,5.20
2023-04-05T15:06:28.828Z,5.70
2023-04-05T15:08:55.913Z,5.33
2023-04-05T15:11:22.833Z,5.70
2023-04-05T15:13:49.693Z,5.67
2023-04-05T15:16:16.617Z,6.07
2023-04-05T15:18:43.498Z,5.37
2023-04-05T15:21:10.644Z,5.37
2023-04-05T15:23:37.593Z,6.63
2023-04-05T15:26:04.475Z,6.10
2023-04-05T15:28:31.508Z,5.83
2023-04-05T15:30:58.389Z,6.00
2023-04-05T15:33:25.486Z,5.43
2023-04-05T15:35:52.395Z,5.37
2023-04-05T15:38:19.359Z,5.87
2023-04-05T15:40:52.704Z,5.67
2023-04-05T15:43:20.960Z,6.27
2023-04-05T15:45:47.912Z,5.57
2023-04-05T15:48:14.891Z,5.23
2023-04-05T15:50:42.416Z,5.93
2023-04-05T15:53:09.752Z,5.43
2023-04-05T15:55:36.647Z,5.87
2023-04-05T15:58:03.679Z,6.00
2023-04-05T16:00:30.585Z,5.53
2023-04-05T16:03:00.681Z,5.60
2023-04-05T16:05:27.969Z,6.73
2023-04-05T16:07:55.744Z,5.93
2023-04-05T16:10:22.657Z,6.27
2023-04-05T16:12:49.669Z,5.73
2023-04-05T16:15:16.808Z,5.73
2023-04-05T16:17:43.813Z,6.07
2023-04-05T16:20:11.140Z,6.70
2023-04-05T16:22:38.083Z,8.30
2023-04-05T16:25:05.451Z,6.60
2023-04-05T16:27:33.825Z,5.57
2023-04-05T16:30:01.148Z,6.10
2023-04-05T16:32:28.086Z,6.27
2023-04-05T16:34:55.037Z,7.10
2023-04-05T16:37:22.042Z,5.40
2023-04-05T16:39:48.920Z,5.70
2023-04-05T16:42:15.958Z,5.20
2023-04-05T16:44:42.834Z,6.70
2023-04-05T16:47:09.808Z,6.57
2023-04-05T16:49:37.105Z,5.57
2023-04-05T16:52:04.314Z,6.03
2023-04-05T16:54:31.681Z,7.00
2023-04-05T16:56:58.880Z,6.87
2023-04-05T16:59:26.096Z,6.03
2023-04-05T17:01:53.314Z,6.83
2023-04-05T17:04:20.278Z,6.60
2023-04-05T17:06:47.128Z,6.60
2023-04-05T17:09:14.252Z,6.70
2023-04-05T17:11:41.227Z,6.70
2023-04-05T17:14:08.134Z,6.50
2023-04-05T17:16:35.029Z,6.73
2023-04-05T17:19:02.219Z,5.70
2023-04-05T17:21:29.318Z,6.13
2023-04-05T17:23:56.240Z,6.73
2023-04-05T17:26:24.126Z,6.70
2023-04-05T17:28:50.985Z,6.73
2023-04-05T17:31:19.209Z,6.63
2023-04-05T17:33:48.318Z,6.70
2023-04-05T17:36:16.785Z,6.27
2023-04-05T17:38:44.617Z,7.40
2023-04-05T17:41:11.937Z,6.77
2023-04-05T17:43:38.866Z,6.40
2023-04-05T17:46:05.935Z,6.60
2023-04-05T17:48:33.159Z,6.37
2023-04-05T17:51:05.000Z,6.37
2023-04-05T17:53:31.866Z,6.80
2023-04-05T17:55:58.773Z,6.53
2023-04-05T17:58:25.661Z,7.37
2023-04-05T18:00:52.635Z,7.43
2023-04-05T18:03:19.640Z,7.10
2023-04-05T18:05:53.693Z,7.40
2023-04-05T18:08:21.570Z,7.00
2023-04-05T18:10:48.775Z,6.57
2023-04-05T18:13:16.019Z,6.70
2023-04-05T18:15:42.909Z,6.47
2023-04-05T18:18:09.868Z,6.60
2023-04-05T18:20:36.824Z,6.63
2023-04-05T18:23:03.797Z,7.10
2023-04-05T18:25:30.677Z,6.30
2023-04-05T18:27:57.570Z,7.97
2023-04-05T18:30:24.454Z,7.67
2023-04-05T18:32:51.379Z,7.17
2023-04-05T18:37:58.878Z,6.47
2023-04-05T18:40:26.383Z,6.97
2023-04-05T19:22:05.145Z,9.93
2023-04-05T19:24:32.020Z,8.63
2023-04-05T19:26:58.887Z,10.07
2023-04-05T19:29:25.912Z,9.27
2023-04-05T19:31:56.071Z,7.10
2023-04-05T19:34:23.004Z,6.80
2023-04-05T19:36:49.956Z,6.80
2023-04-05T19:39:16.879Z,6.13
2023-04-05T19:41:44.118Z,6.97
2023-04-05T19:44:14.506Z,7.10
2023-04-05T19:46:41.735Z,6.50
2023-04-05T19:49:14.457Z,7.30
2023-04-05T19:51:42.769Z,7.10
2023-04-05T19:54:14.940Z,7.60
2023-04-05T19:56:42.162Z,7.20
2023-04-05T19:59:28.259Z,6.80
2023-04-05T20:01:55.549Z,7.07
2023-04-05T20:04:23.952Z,8.30
2023-04-05T20:06:55.447Z,7.57
2023-04-05T20:09:24.491Z,8.07
2023-04-05T20:12:00.148Z,7.93
2023-04-05T20:14:30.585Z,9.37
2023-04-05T20:16:58.792Z,8.63
2023-04-05T20:19:30.828Z,9.10
2023-04-05T20:22:03.110Z,8.20
2023-04-05T20:24:30.612Z,8.50
2023-04-05T20:26:57.655Z,8.13
2023-04-05T20:29:29.318Z,8.03
2023-04-05T20:31:56.556Z,7.30
2023-04-05T20:34:34.441Z,8.30
2023-04-05T20:37:12.103Z,8.10
2023-04-05T20:39:39.404Z,7.67
2023-04-05T20:42:07.560Z,8.63
2023-04-05T20:44:34.460Z,8.03
2023-04-05T20:47:01.769Z,9.07
2023-04-05T20:49:28.788Z,10.17
2023-04-05T20:51:57.307Z,8.93
2023-04-05T20:54:24.488Z,8.60
2023-04-05T20:56:51.416Z,8.10
2023-04-05T20:59:21.523Z,8.07
2023-04-05T21:01:49.378Z,9.47
2023-04-05T21:04:16.397Z,8.40
2023-04-05T21:06:43.348Z,8.40
2023-04-05T21:09:10.708Z,8.57
2023-04-05T21:11:37.892Z,9.00
2023-04-05T21:14:04.826Z,7.70
2023-04-05T21:16:31.966Z,8.93
2023-04-05T21:18:59.055Z,9.20
2023-04-05T21:21:26.421Z,9.03
2023-04-05T21:23:53.425Z,7.90
2023-04-05T21:26:20.320Z,9.37
2023-04-05T21:28:47.345Z,9.23
2023-04-05T21:31:14.266Z,10.10
2023-04-05T21:33:41.743Z,9.53
2023-04-05T21:36:08.803Z,9.37
2023-04-05T21:38:36.050Z,8.27
2023-04-05T21:41:02.936Z,9.30
2023-04-05T21:43:29.855Z,9.70
2023-04-05T21:45:56.980Z,10.60
2023-04-05T21:48:24.970Z,10.10
2023-04-05T21:50:51.923Z,8.53
2023-04-05T21:53:18.992Z,8.30
2023-04-05T21:55:46.212Z,9.47
2023-04-05T21:58:13.138Z,9.70
2023-04-05T22:00:40.067Z,10.10
2023-04-05T22:03:07.226Z,9.60
2023-04-05T22:05:38.666Z,9.70
2023-04-05T22:08:06.742Z,9.40
2023-04-05T22:10:37.222Z,9.37
2023-04-05T22:13:04.184Z,9.80
2023-04-05T22:15:31.083Z,10.20
2023-04-05T22:17:58.054Z,9.97
2023-04-05T22:20:24.992Z,10.07
2023-04-05T22:22:52.113Z,10.00
2023-04-05T22:25:19.073Z,10.33
2023-04-05T22:27:46.293Z,11.20
2023-04-05T22:30:13.880Z,10.90
2023-04-05T22:32:41.536Z,11.60
2023-04-05T22:35:08.781Z,11.03
2023-04-05T22:37:38.114Z,11.77
2023-04-05T22:40:05.694Z,12.13
2023-04-05T22:42:32.574Z,11.30
2023-04-05T22:44:59.635Z,12.00
2023-04-05T22:47:26.685Z,13.13
2023-04-05T22:49:53.830Z,13.07
2023-04-05T22:52:20.854Z,13.40
2023-04-05T22:54:47.835Z,13.70
2023-04-05T22:57:14.787Z,13.43
2023-04-05T22:59:41.813Z,13.60
2023-04-05T23:02:09.757Z,13.63
2023-04-05T23:04:36.758Z,14.07
2023-04-05T23:07:03.770Z,13.40
2023-04-05T23:09:30.725Z,12.73
2023-04-05T23:11:57.690Z,12.80
2023-04-05T23:14:24.560Z,13.70
2023-04-05T23:16:51.412Z,14.00
2023-04-05T23:19:18.301Z,13.83
2023-04-05T23:21:45.236Z,13.40
2023-04-05T23:24:12.511Z,12.00
2023-04-05T23:26:39.504Z,14.03
2023-04-05T23:29:07.131Z,12.53
2023-04-05T23:31:34.297Z,12.63
2023-04-05T23:34:01.236Z,13.90
2023-04-05T23:36:28.947Z,14.30
2023-04-05T23:38:56.592Z,11.80
2023-04-05T23:41:23.478Z,12.63
2023-04-05T23:43:50.845Z,12.70
2023-04-05T23:46:22.162Z,12.00
2023-04-05T23:48:49.423Z,11.93
2023-04-05T23:51:16.421Z,12.53
2023-04-05T23:53:43.324Z,12.80
2023-04-05T23:56:10.304Z,13.53
2023-04-05T23:58:37.260Z,12.80
